sensor_id;sensor_type;location;lat;lon;timestamp;P1;durP1;ratioP1;P2;durP2;ratioP2
20527;SDS011;23612;50.894;10.700;2023-12-04T00:00:07;16.13;;;9.10;;
20527;SDS011;23612;50.894;10.700;2023-12-04T00:02:33;11.30;;;6.27;;
20527;SDS011;23612;50.894;10.700;2023-12-04T00:04:59;14.73;;;8.20;;
20527;SDS011;23612;50.894;10.700;2023-12-04T00:07:24;18.53;;;8.80;;
20527;SDS011;23612;50.894;10.700;2023-12-04T00:09:49;18.07;;;8.53;;
20527;SDS011;23612;50.894;10.700;2023-12-04T00:12:15;17.83;;;8.63;;
20527;SDS011;23612;50.894;10.700;2023-12-04T00:14:40;13.00;;;6.63;;
20527;SDS011;23612;50.894;10.700;2023-12-04T00:17:06;12.27;;;6.27;;
20527;SDS011;23612;50.894;10.700;2023-12-04T00:19:31;14.53;;;6.70;;
20527;SDS011;23612;50.894;10.700;2023-12-04T00:21:57;12.03;;;6.37;;
20527;SDS011;23612;50.894;10.700;2023-12-04T00:24:22;8.37;;;5.37;;
20527;SDS011;23612;50.894;10.700;2023-12-04T00:26:48;10.87;;;5.47;;
20527;SDS011;23612;50.894;10.700;2023-12-04T00:29:13;11.03;;;5.80;;
20527;SDS011;23612;50.894;10.700;2023-12-04T00:31:39;8.20;;;4.57;;
20527;SDS011;23612;50.894;10.700;2023-12-04T00:34:04;10.57;;;5.37;;
20527;SDS011;23612;50.894;10.700;2023-12-04T00:36:30;9.47;;;5.30;;
20527;SDS011;23612;50.894;10.700;2023-12-04T00:38:55;9.80;;;5.10;;
20527;SDS011;23612;50.894;10.700;2023-12-04T00:41:21;10.13;;;5.17;;
20527;SDS011;23612;50.894;10.700;2023-12-04T00:43:46;9.20;;;5.10;;
20527;SDS011;23612;50.894;10.700;2023-12-04T00:46:12;14.13;;;6.50;;
20527;SDS011;23612;50.894;10.700;2023-12-04T00:48:37;12.00;;;6.33;;
20527;SDS011;23612;50.894;10.700;2023-12-04T00:51:03;12.47;;;6.40;;
20527;SDS011;23612;50.894;10.700;2023-12-04T00:53:29;9.33;;;5.63;;
20527;SDS011;23612;50.894;10.700;2023-12-04T00:55:54;9.23;;;5.40;;
20527;SDS011;23612;50.894;10.700;2023-12-04T00:58:19;10.50;;;5.47;;
20527;SDS011;23612;50.894;10.700;2023-12-04T01:00:45;9.67;;;5.47;;
20527;SDS011;23612;50.894;10.700;2023-12-04T01:03:13;9.57;;;5.87;;
20527;SDS011;23612;50.894;10.700;2023-12-04T01:05:39;10.63;;;6.40;;
20527;SDS011;23612;50.894;10.700;2023-12-04T01:08:05;10.37;;;5.80;;
20527;SDS011;23612;50.894;10.700;2023-12-04T01:10:30;11.07;;;6.53;;
20527;SDS011;23612;50.894;10.700;2023-12-04T01:12:56;11.90;;;6.30;;
20527;SDS011;23612;50.894;10.700;2023-12-04T01:15:21;12.50;;;6.60;;
20527;SDS011;23612;50.894;10.700;2023-12-04T01:17:48;9.93;;;5.77;;
20527;SDS011;23612;50.894;10.700;2023-12-04T01:20:14;11.67;;;6.67;;
20527;SDS011;23612;50.894;10.700;2023-12-04T01:22:40;12.37;;;6.83;;
20527;SDS011;23612;50.894;10.700;2023-12-04T01:25:05;14.37;;;7.20;;
20527;SDS011;23612;50.894;10.700;2023-12-04T01:27:31;13.23;;;6.17;;
20527;SDS011;23612;50.894;10.700;2023-12-04T01:30:00;12.20;;;6.83;;
20527;SDS011;23612;50.894;10.700;2023-12-04T01:32:25;10.30;;;6.03;;
20527;SDS011;23612;50.894;10.700;2023-12-04T01:34:51;12.50;;;6.57;;
20527;SDS011;23612;50.894;10.700;2023-12-04T01:37:16;8.87;;;5.03;;
20527;SDS011;23612;50.894;10.700;2023-12-04T01:39:42;11.37;;;6.17;;
20527;SDS011;23612;50.894;10.700;2023-12-04T01:42:07;9.37;;;5.70;;
20527;SDS011;23612;50.894;10.700;2023-12-04T01:44:33;12.77;;;5.23;;
20527;SDS011;23612;50.894;10.700;2023-12-04T01:46:58;10.47;;;5.20;;
20527;SDS011;23612;50.894;10.700;2023-12-04T01:49:24;11.53;;;6.47;;
20527;SDS011;23612;50.894;10.700;2023-12-04T01:51:49;9.40;;;6.13;;
20527;SDS011;23612;50.894;10.700;2023-12-04T01:54:15;9.40;;;5.43;;
20527;SDS011;23612;50.894;10.700;2023-12-04T01:56:41;10.53;;;5.90;;
20527;SDS011;23612;50.894;10.700;2023-12-04T01:59:08;17.43;;;8.67;;
20527;SDS011;23612;50.894;10.700;2023-12-04T02:01:34;11.73;;;6.63;;
20527;SDS011;23612;50.894;10.700;2023-12-04T02:04:01;11.53;;;6.30;;
20527;SDS011;23612;50.894;10.700;2023-12-04T02:06:27;10.63;;;6.07;;
20527;SDS011;23612;50.894;10.700;2023-12-04T02:08:52;10.43;;;6.07;;
20527;SDS011;23612;50.894;10.700;2023-12-04T02:11:18;11.87;;;6.53;;
20527;SDS011;23612;50.894;10.700;2023-12-04T02:13:44;12.20;;;7.13;;
20527;SDS011;23612;50.894;10.700;2023-12-04T02:16:10;13.77;;;8.40;;
20527;SDS011;23612;50.894;10.700;2023-12-04T02:18:37;9.27;;;5.63;;
20527;SDS011;23612;50.894;10.700;2023-12-04T02:21:03;7.80;;;5.00;;
20527;SDS011;23612;50.894;10.700;2023-12-04T02:23:28;6.50;;;4.60;;
20527;SDS011;23612;50.894;10.700;2023-12-04T02:25:55;9.53;;;6.90;;
20527;SDS011;23612;50.894;10.700;2023-12-04T02:28:24;9.10;;;4.43;;
20527;SDS011;23612;50.894;10.700;2023-12-04T02:30:55;6.53;;;4.43;;
20527;SDS011;23612;50.894;10.700;2023-12-04T02:33:23;6.87;;;4.37;;
20527;SDS011;23612;50.894;10.700;2023-12-04T02:35:51;6.83;;;4.43;;
20527;SDS011;23612;50.894;10.700;2023-12-04T02:38:17;7.83;;;4.40;;
20527;SDS011;23612;50.894;10.700;2023-12-04T02:40:43;7.07;;;4.30;;
20527;SDS011;23612;50.894;10.700;2023-12-04T02:43:09;6.20;;;4.00;;
20527;SDS011;23612;50.894;10.700;2023-12-04T02:45:34;5.27;;;3.63;;
20527;SDS011;23612;50.894;10.700;2023-12-04T02:47:59;6.90;;;4.40;;
20527;SDS011;23612;50.894;10.700;2023-12-04T02:50:25;6.40;;;4.23;;
20527;SDS011;23612;50.894;10.700;2023-12-04T02:52:50;9.43;;;5.30;;
20527;SDS011;23612;50.894;10.700;2023-12-04T02:55:16;8.77;;;5.13;;
20527;SDS011;23612;50.894;10.700;2023-12-04T02:57:41;8.23;;;4.90;;
20527;SDS011;23612;50.894;10.700;2023-12-04T03:00:07;7.93;;;4.90;;
20527;SDS011;23612;50.894;10.700;2023-12-04T03:02:33;8.37;;;5.23;;
20527;SDS011;23612;50.894;10.700;2023-12-04T03:04:58;7.70;;;5.40;;
20527;SDS011;23612;50.894;10.700;2023-12-04T03:07:24;8.57;;;5.67;;
20527;SDS011;23612;50.894;10.700;2023-12-04T03:09:49;7.43;;;5.10;;
20527;SDS011;23612;50.894;10.700;2023-12-04T03:12:16;8.70;;;5.50;;
20527;SDS011;23612;50.894;10.700;2023-12-04T03:14:41;9.27;;;5.40;;
20527;SDS011;23612;50.894;10.700;2023-12-04T03:17:07;8.30;;;6.00;;
20527;SDS011;23612;50.894;10.700;2023-12-04T03:19:32;8.43;;;5.33;;
20527;SDS011;23612;50.894;10.700;2023-12-04T03:21:58;7.23;;;5.20;;
20527;SDS011;23612;50.894;10.700;2023-12-04T03:24:24;8.03;;;5.27;;
20527;SDS011;23612;50.894;10.700;2023-12-04T03:26:50;7.93;;;5.17;;
20527;SDS011;23612;50.894;10.700;2023-12-04T03:29:15;6.83;;;5.03;;
20527;SDS011;23612;50.894;10.700;2023-12-04T03:31:41;8.13;;;5.07;;
20527;SDS011;23612;50.894;10.700;2023-12-04T03:34:06;9.73;;;5.70;;
20527;SDS011;23612;50.894;10.700;2023-12-04T03:36:32;8.33;;;5.03;;
20527;SDS011;23612;50.894;10.700;2023-12-04T03:38:57;9.87;;;5.97;;
20527;SDS011;23612;50.894;10.700;2023-12-04T03:41:23;9.27;;;5.90;;
20527;SDS011;23612;50.894;10.700;2023-12-04T03:43:48;11.50;;;6.27;;
20527;SDS011;23612;50.894;10.700;2023-12-04T03:46:14;11.20;;;6.13;;
20527;SDS011;23612;50.894;10.700;2023-12-04T03:48:39;10.87;;;6.20;;
20527;SDS011;23612;50.894;10.700;2023-12-04T03:51:05;9.97;;;5.70;;
20527;SDS011;23612;50.894;10.700;2023-12-04T03:53:31;8.63;;;5.63;;
20527;SDS011;23612;50.894;10.700;2023-12-04T03:55:58;9.40;;;5.80;;
20527;SDS011;23612;50.894;10.700;2023-12-04T03:58:23;7.67;;;5.07;;
20527;SDS011;23612;50.894;10.700;2023-12-04T04:00:49;9.17;;;5.80;;
20527;SDS011;23612;50.894;10.700;2023-12-04T04:03:14;9.43;;;5.77;;
20527;SDS011;23612;50.894;10.700;2023-12-04T04:05:40;10.50;;;6.40;;
20527;SDS011;23612;50.894;10.700;2023-12-04T04:08:05;9.40;;;5.97;;
20527;SDS011;23612;50.894;10.700;2023-12-04T04:10:32;11.53;;;7.00;;
20527;SDS011;23612;50.894;10.700;2023-12-04T04:12:58;10.83;;;6.90;;
20527;SDS011;23612;50.894;10.700;2023-12-04T04:15:24;9.07;;;6.17;;
20527;SDS011;23612;50.894;10.700;2023-12-04T04:17:50;10.30;;;6.87;;
20527;SDS011;23612;50.894;10.700;2023-12-04T04:20:16;9.33;;;6.27;;
20527;SDS011;23612;50.894;10.700;2023-12-04T04:22:42;8.70;;;5.70;;
20527;SDS011;23612;50.894;10.700;2023-12-04T04:25:08;13.07;;;6.97;;
20527;SDS011;23612;50.894;10.700;2023-12-04T04:27:34;9.87;;;5.97;;
20527;SDS011;23612;50.894;10.700;2023-12-04T04:29:59;13.47;;;7.00;;
20527;SDS011;23612;50.894;10.700;2023-12-04T04:32:25;11.20;;;6.80;;
20527;SDS011;23612;50.894;10.700;2023-12-04T04:34:51;11.10;;;6.60;;
20527;SDS011;23612;50.894;10.700;2023-12-04T04:37:16;11.33;;;6.63;;
20527;SDS011;23612;50.894;10.700;2023-12-04T04:39:42;10.53;;;6.30;;
20527;SDS011;23612;50.894;10.700;2023-12-04T04:42:08;10.37;;;6.40;;
20527;SDS011;23612;50.894;10.700;2023-12-04T04:44:33;12.03;;;6.57;;
20527;SDS011;23612;50.894;10.700;2023-12-04T04:46:59;11.23;;;6.40;;
20527;SDS011;23612;50.894;10.700;2023-12-04T04:49:24;11.37;;;6.60;;
20527;SDS011;23612;50.894;10.700;2023-12-04T04:51:50;10.83;;;6.60;;
20527;SDS011;23612;50.894;10.700;2023-12-04T04:54:15;13.80;;;7.00;;
20527;SDS011;23612;50.894;10.700;2023-12-04T04:56:41;9.57;;;5.93;;
20527;SDS011;23612;50.894;10.700;2023-12-04T04:59:06;13.47;;;7.27;;
20527;SDS011;23612;50.894;10.700;2023-12-04T05:01:32;10.70;;;6.70;;
20527;SDS011;23612;50.894;10.700;2023-12-04T05:03:57;9.73;;;6.47;;
20527;SDS011;23612;50.894;10.700;2023-12-04T05:06:23;15.17;;;7.83;;
20527;SDS011;23612;50.894;10.700;2023-12-04T05:08:48;13.23;;;7.87;;
20527;SDS011;23612;50.894;10.700;2023-12-04T05:11:17;9.67;;;6.47;;
20527;SDS011;23612;50.894;10.700;2023-12-04T05:13:43;11.63;;;6.80;;
20527;SDS011;23612;50.894;10.700;2023-12-04T05:16:09;11.93;;;8.03;;
20527;SDS011;23612;50.894;10.700;2023-12-04T05:18:35;11.10;;;7.00;;
20527;SDS011;23612;50.894;10.700;2023-12-04T05:21:00;12.17;;;7.47;;
20527;SDS011;23612;50.894;10.700;2023-12-04T05:23:26;23.87;;;11.47;;
20527;SDS011;23612;50.894;10.700;2023-12-04T05:25:51;20.87;;;11.20;;
20527;SDS011;23612;50.894;10.700;2023-12-04T05:28:17;12.47;;;7.53;;
20527;SDS011;23612;50.894;10.700;2023-12-04T05:30:42;11.10;;;7.57;;
20527;SDS011;23612;50.894;10.700;2023-12-04T05:33:08;11.57;;;7.53;;
20527;SDS011;23612;50.894;10.700;2023-12-04T05:35:34;11.80;;;7.67;;
20527;SDS011;23612;50.894;10.700;2023-12-04T05:38:00;11.93;;;7.90;;
20527;SDS011;23612;50.894;10.700;2023-12-04T05:40:25;25.30;;;12.63;;
20527;SDS011;23612;50.894;10.700;2023-12-04T05:42:51;19.53;;;11.40;;
20527;SDS011;23612;50.894;10.700;2023-12-04T05:45:16;18.27;;;10.57;;
20527;SDS011;23612;50.894;10.700;2023-12-04T05:47:41;15.80;;;9.30;;
20527;SDS011;23612;50.894;10.700;2023-12-04T05:50:07;17.27;;;9.73;;
20527;SDS011;23612;50.894;10.700;2023-12-04T05:52:33;15.50;;;9.20;;
20527;SDS011;23612;50.894;10.700;2023-12-04T05:54:58;18.03;;;10.23;;
20527;SDS011;23612;50.894;10.700;2023-12-04T05:57:24;15.17;;;10.23;;
20527;SDS011;23612;50.894;10.700;2023-12-04T05:59:49;15.17;;;9.93;;
20527;SDS011;23612;50.894;10.700;2023-12-04T06:02:15;14.60;;;8.00;;
20527;SDS011;23612;50.894;10.700;2023-12-04T06:04:41;13.10;;;7.83;;
20527;SDS011;23612;50.894;10.700;2023-12-04T06:07:06;12.23;;;7.93;;
20527;SDS011;23612;50.894;10.700;2023-12-04T06:09:32;14.63;;;9.00;;
20527;SDS011;23612;50.894;10.700;2023-12-04T06:11:58;17.93;;;10.03;;
20527;SDS011;23612;50.894;10.700;2023-12-04T06:14:29;16.80;;;10.80;;
20527;SDS011;23612;50.894;10.700;2023-12-04T06:16:55;19.93;;;11.40;;
20527;SDS011;23612;50.894;10.700;2023-12-04T06:19:20;17.23;;;9.93;;
20527;SDS011;23612;50.894;10.700;2023-12-04T06:21:46;16.07;;;9.83;;
20527;SDS011;23612;50.894;10.700;2023-12-04T06:24:11;15.43;;;8.80;;
20527;SDS011;23612;50.894;10.700;2023-12-04T06:26:37;22.40;;;9.60;;
20527;SDS011;23612;50.894;10.700;2023-12-04T06:29:07;36.17;;;15.43;;
20527;SDS011;23612;50.894;10.700;2023-12-04T06:31:33;41.80;;;17.73;;
20527;SDS011;23612;50.894;10.700;2023-12-04T06:33:58;25.83;;;12.77;;
20527;SDS011;23612;50.894;10.700;2023-12-04T06:36:24;15.37;;;8.83;;
20527;SDS011;23612;50.894;10.700;2023-12-04T06:38:51;14.40;;;7.70;;
20527;SDS011;23612;50.894;10.700;2023-12-04T06:41:18;12.60;;;7.63;;
20527;SDS011;23612;50.894;10.700;2023-12-04T06:43:46;13.67;;;7.90;;
20527;SDS011;23612;50.894;10.700;2023-12-04T06:46:12;13.23;;;8.00;;
20527;SDS011;23612;50.894;10.700;2023-12-04T06:48:40;11.77;;;7.33;;
20527;SDS011;23612;50.894;10.700;2023-12-04T06:51:07;8.13;;;5.33;;
20527;SDS011;23612;50.894;10.700;2023-12-04T06:53:33;12.03;;;6.10;;
20527;SDS011;23612;50.894;10.700;2023-12-04T06:55:58;7.13;;;4.93;;
20527;SDS011;23612;50.894;10.700;2023-12-04T06:58:24;7.40;;;4.87;;
20527;SDS011;23612;50.894;10.700;2023-12-04T07:00:49;7.10;;;4.20;;
20527;SDS011;23612;50.894;10.700;2023-12-04T07:03:15;59.23;;;33.30;;
20527;SDS011;23612;50.894;10.700;2023-12-04T07:05:41;31.70;;;23.20;;
20527;SDS011;23612;50.894;10.700;2023-12-04T07:08:06;25.97;;;17.07;;
20527;SDS011;23612;50.894;10.700;2023-12-04T07:10:32;7.60;;;5.10;;
20527;SDS011;23612;50.894;10.700;2023-12-04T07:12:58;6.87;;;4.40;;
20527;SDS011;23612;50.894;10.700;2023-12-04T07:15:23;7.70;;;4.63;;
20527;SDS011;23612;50.894;10.700;2023-12-04T07:17:49;6.33;;;4.13;;
20527;SDS011;23612;50.894;10.700;2023-12-04T07:20:14;5.73;;;4.03;;
20527;SDS011;23612;50.894;10.700;2023-12-04T07:22:39;7.73;;;4.73;;
20527;SDS011;23612;50.894;10.700;2023-12-04T07:25:06;7.80;;;5.80;;
20527;SDS011;23612;50.894;10.700;2023-12-04T07:27:34;13.67;;;8.17;;
20527;SDS011;23612;50.894;10.700;2023-12-04T07:30:00;18.37;;;9.77;;
20527;SDS011;23612;50.894;10.700;2023-12-04T07:32:26;18.30;;;10.53;;
20527;SDS011;23612;50.894;10.700;2023-12-04T07:34:51;9.83;;;5.57;;
20527;SDS011;23612;50.894;10.700;2023-12-04T07:37:17;9.40;;;5.27;;
20527;SDS011;23612;50.894;10.700;2023-12-04T07:39:43;11.90;;;6.37;;
20527;SDS011;23612;50.894;10.700;2023-12-04T07:42:11;13.17;;;7.60;;
20527;SDS011;23612;50.894;10.700;2023-12-04T07:44:36;15.90;;;6.60;;
20527;SDS011;23612;50.894;10.700;2023-12-04T07:47:02;11.40;;;5.90;;
20527;SDS011;23612;50.894;10.700;2023-12-04T07:49:27;12.90;;;5.90;;
20527;SDS011;23612;50.894;10.700;2023-12-04T07:51:53;7.47;;;5.07;;
20527;SDS011;23612;50.894;10.700;2023-12-04T07:54:18;11.37;;;5.27;;
20527;SDS011;23612;50.894;10.700;2023-12-04T07:56:44;10.23;;;6.03;;
20527;SDS011;23612;50.894;10.700;2023-12-04T07:59:09;11.18;;;6.50;;
20527;SDS011;23612;50.894;10.700;2023-12-04T08:01:35;10.80;;;6.73;;
20527;SDS011;23612;50.894;10.700;2023-12-04T08:04:00;16.00;;;6.60;;
20527;SDS011;23612;50.894;10.700;2023-12-04T08:06:27;10.37;;;6.60;;
20527;SDS011;23612;50.894;10.700;2023-12-04T08:08:53;13.13;;;7.30;;
20527;SDS011;23612;50.894;10.700;2023-12-04T08:11:19;14.07;;;7.40;;
20527;SDS011;23612;50.894;10.700;2023-12-04T08:13:44;12.20;;;7.03;;
20527;SDS011;23612;50.894;10.700;2023-12-04T08:16:13;11.00;;;7.18;;
20527;SDS011;23612;50.894;10.700;2023-12-04T08:18:41;11.85;;;6.50;;
20527;SDS011;23612;50.894;10.700;2023-12-04T08:21:08;15.85;;;7.68;;
20527;SDS011;23612;50.894;10.700;2023-12-04T08:23:34;16.35;;;8.57;;
20527;SDS011;23612;50.894;10.700;2023-12-04T08:25:59;9.10;;;6.30;;
20527;SDS011;23612;50.894;10.700;2023-12-04T08:28:25;10.10;;;6.55;;
20527;SDS011;23612;50.894;10.700;2023-12-04T08:30:50;9.88;;;6.95;;
20527;SDS011;23612;50.894;10.700;2023-12-04T08:33:16;9.85;;;6.25;;
20527;SDS011;23612;50.894;10.700;2023-12-04T08:35:42;10.60;;;6.00;;
20527;SDS011;23612;50.894;10.700;2023-12-04T08:38:08;10.30;;;6.15;;
20527;SDS011;23612;50.894;10.700;2023-12-04T08:40:33;8.50;;;5.43;;
20527;SDS011;23612;50.894;10.700;2023-12-04T08:42:59;8.90;;;5.93;;
20527;SDS011;23612;50.894;10.700;2023-12-04T08:45:24;10.00;;;6.13;;
20527;SDS011;23612;50.894;10.700;2023-12-04T08:47:50;9.02;;;5.60;;
20527;SDS011;23612;50.894;10.700;2023-12-04T08:50:15;8.00;;;5.30;;
20527;SDS011;23612;50.894;10.700;2023-12-04T08:52:41;14.10;;;5.53;;
20527;SDS011;23612;50.894;10.700;2023-12-04T08:55:07;12.70;;;5.22;;
20527;SDS011;23612;50.894;10.700;2023-12-04T08:57:33;8.95;;;5.82;;
20527;SDS011;23612;50.894;10.700;2023-12-04T08:59:58;37.30;;;21.90;;
20527;SDS011;23612;50.894;10.700;2023-12-04T09:02:24;14.52;;;6.88;;
20527;SDS011;23612;50.894;10.700;2023-12-04T09:04:49;16.80;;;10.23;;
20527;SDS011;23612;50.894;10.700;2023-12-04T09:07:15;16.98;;;8.27;;
20527;SDS011;23612;50.894;10.700;2023-12-04T09:09:40;16.23;;;7.40;;
20527;SDS011;23612;50.894;10.700;2023-12-04T09:12:06;17.60;;;8.70;;
20527;SDS011;23612;50.894;10.700;2023-12-04T09:14:33;11.35;;;6.68;;
20527;SDS011;23612;50.894;10.700;2023-12-04T09:16:59;10.32;;;6.53;;
20527;SDS011;23612;50.894;10.700;2023-12-04T09:19:25;13.23;;;7.22;;
20527;SDS011;23612;50.894;10.700;2023-12-04T09:21:50;14.02;;;6.10;;
20527;SDS011;23612;50.894;10.700;2023-12-04T09:24:16;12.57;;;6.85;;
20527;SDS011;23612;50.894;10.700;2023-12-04T09:26:41;12.00;;;6.55;;
20527;SDS011;23612;50.894;10.700;2023-12-04T09:29:08;16.48;;;6.97;;
20527;SDS011;23612;50.894;10.700;2023-12-04T09:31:36;21.63;;;7.50;;
20527;SDS011;23612;50.894;10.700;2023-12-04T09:34:02;9.93;;;6.95;;
20527;SDS011;23612;50.894;10.700;2023-12-04T09:36:27;22.38;;;10.00;;
20527;SDS011;23612;50.894;10.700;2023-12-04T09:38:54;15.65;;;6.65;;
20527;SDS011;23612;50.894;10.700;2023-12-04T09:41:20;13.63;;;6.30;;
20527;SDS011;23612;50.894;10.700;2023-12-04T09:43:46;10.70;;;6.68;;
20527;SDS011;23612;50.894;10.700;2023-12-04T09:46:12;10.98;;;6.80;;
20527;SDS011;23612;50.894;10.700;2023-12-04T09:48:40;14.25;;;6.97;;
20527;SDS011;23612;50.894;10.700;2023-12-04T09:51:06;18.55;;;7.80;;
20527;SDS011;23612;50.894;10.700;2023-12-04T09:53:33;23.42;;;11.40;;
20527;SDS011;23612;50.894;10.700;2023-12-04T09:56:00;21.58;;;11.25;;
20527;SDS011;23612;50.894;10.700;2023-12-04T09:58:28;19.27;;;10.45;;
20527;SDS011;23612;50.894;10.700;2023-12-04T10:00:55;27.55;;;12.32;;
20527;SDS011;23612;50.894;10.700;2023-12-04T10:03:21;32.13;;;13.70;;
20527;SDS011;23612;50.894;10.700;2023-12-04T10:05:47;27.63;;;13.95;;
20527;SDS011;23612;50.894;10.700;2023-12-04T10:08:13;22.90;;;11.15;;
20527;SDS011;23612;50.894;10.700;2023-12-04T10:10:39;21.55;;;10.77;;
20527;SDS011;23612;50.894;10.700;2023-12-04T10:13:04;23.00;;;10.82;;
20527;SDS011;23612;50.894;10.700;2023-12-04T10:15:30;20.92;;;9.98;;
20527;SDS011;23612;50.894;10.700;2023-12-04T10:17:55;19.88;;;9.48;;
20527;SDS011;23612;50.894;10.700;2023-12-04T10:20:21;15.27;;;9.25;;
20527;SDS011;23612;50.894;10.700;2023-12-04T10:23:02;15.00;;;8.25;;
20527;SDS011;23612;50.894;10.700;2023-12-04T10:25:29;17.88;;;8.77;;
20527;SDS011;23612;50.894;10.700;2023-12-04T10:28:06;13.73;;;8.10;;
20527;SDS011;23612;50.894;10.700;2023-12-04T10:30:34;14.05;;;7.82;;
20527;SDS011;23612;50.894;10.700;2023-12-04T10:33:05;15.05;;;9.13;;
20527;SDS011;23612;50.894;10.700;2023-12-04T10:35:32;17.63;;;8.90;;
20527;SDS011;23612;50.894;10.700;2023-12-04T10:38:01;14.90;;;7.50;;
20527;SDS011;23612;50.894;10.700;2023-12-04T10:40:34;13.30;;;7.32;;
20527;SDS011;23612;50.894;10.700;2023-12-04T10:45:46;14.15;;;7.03;;
20527;SDS011;23612;50.894;10.700;2023-12-04T10:48:13;12.43;;;6.95;;
20527;SDS011;23612;50.894;10.700;2023-12-04T10:50:41;12.38;;;6.78;;
20527;SDS011;23612;50.894;10.700;2023-12-04T10:53:08;18.77;;;8.82;;
20527;SDS011;23612;50.894;10.700;2023-12-04T10:55:35;18.05;;;8.02;;
20527;SDS011;23612;50.894;10.700;2023-12-04T10:58:02;14.18;;;8.27;;
20527;SDS011;23612;50.894;10.700;2023-12-04T11:00:34;26.08;;;13.63;;
20527;SDS011;23612;50.894;10.700;2023-12-04T11:03:03;17.92;;;9.95;;
20527;SDS011;23612;50.894;10.700;2023-12-04T11:05:33;16.25;;;10.20;;
20527;SDS011;23612;50.894;10.700;2023-12-04T11:08:02;16.27;;;8.80;;
20527;SDS011;23612;50.894;10.700;2023-12-04T11:10:31;15.20;;;8.05;;
20527;SDS011;23612;50.894;10.700;2023-12-04T11:13:11;15.20;;;7.40;;
20527;SDS011;23612;50.894;10.700;2023-12-04T11:15:52;13.43;;;7.15;;
20527;SDS011;23612;50.894;10.700;2023-12-04T11:18:21;86.35;;;38.60;;
20527;SDS011;23612;50.894;10.700;2023-12-04T11:21:04;17.23;;;8.38;;
20527;SDS011;23612;50.894;10.700;2023-12-04T11:23:33;28.80;;;11.85;;
20527;SDS011;23612;50.894;10.700;2023-12-04T11:25:59;21.90;;;10.25;;
20527;SDS011;23612;50.894;10.700;2023-12-04T11:28:26;177.73;;;47.20;;
20527;SDS011;23612;50.894;10.700;2023-12-04T11:30:53;26.88;;;13.02;;
20527;SDS011;23612;50.894;10.700;2023-12-04T11:33:19;51.10;;;19.83;;
20527;SDS011;23612;50.894;10.700;2023-12-04T11:35:45;38.30;;;17.75;;
20527;SDS011;23612;50.894;10.700;2023-12-04T11:38:14;53.25;;;21.90;;
20527;SDS011;23612;50.894;10.700;2023-12-04T11:40:41;76.00;;;33.20;;
20527;SDS011;23612;50.894;10.700;2023-12-04T11:45:51;80.47;;;32.70;;
20527;SDS011;23612;50.894;10.700;2023-12-04T11:48:21;71.82;;;32.35;;
20527;SDS011;23612;50.894;10.700;2023-12-04T11:50:49;378.00;;;84.25;;
20527;SDS011;23612;50.894;10.700;2023-12-04T11:53:15;77.57;;;33.85;;
20527;SDS011;23612;50.894;10.700;2023-12-04T11:55:41;42.70;;;20.48;;
20527;SDS011;23612;50.894;10.700;2023-12-04T11:58:10;62.30;;;33.88;;
20527;SDS011;23612;50.894;10.700;2023-12-04T12:00:36;73.57;;;39.40;;
20527;SDS011;23612;50.894;10.700;2023-12-04T12:03:03;71.35;;;34.95;;
20527;SDS011;23612;50.894;10.700;2023-12-04T12:05:35;39.80;;;22.73;;
20527;SDS011;23612;50.894;10.700;2023-12-04T12:08:03;44.72;;;21.05;;
20527;SDS011;23612;50.894;10.700;2023-12-04T12:10:30;49.92;;;22.73;;
20527;SDS011;23612;50.894;10.700;2023-12-04T12:12:55;34.75;;;19.52;;
20527;SDS011;23612;50.894;10.700;2023-12-04T12:15:24;39.00;;;20.75;;
20527;SDS011;23612;50.894;10.700;2023-12-04T12:17:50;35.65;;;19.83;;
20527;SDS011;23612;50.894;10.700;2023-12-04T12:20:18;31.77;;;18.02;;
20527;SDS011;23612;50.894;10.700;2023-12-04T12:22:45;81.20;;;28.63;;
20527;SDS011;23612;50.894;10.700;2023-12-04T12:25:12;50.63;;;22.42;;
20527;SDS011;23612;50.894;10.700;2023-12-04T12:27:38;18.00;;;9.55;;
20527;SDS011;23612;50.894;10.700;2023-12-04T12:30:04;7.45;;;4.80;;
20527;SDS011;23612;50.894;10.700;2023-12-04T12:32:31;37.78;;;16.67;;
20527;SDS011;23612;50.894;10.700;2023-12-04T12:34:57;21.55;;;9.40;;
20527;SDS011;23612;50.894;10.700;2023-12-04T12:37:23;3.15;;;2.55;;
20527;SDS011;23612;50.894;10.700;2023-12-04T12:39:49;13.70;;;6.43;;
20527;SDS011;23612;50.894;10.700;2023-12-04T12:42:22;3.72;;;2.40;;
20527;SDS011;23612;50.894;10.700;2023-12-04T12:44:52;2.92;;;2.25;;
20527;SDS011;23612;50.894;10.700;2023-12-04T12:47:18;2.95;;;1.98;;
20527;SDS011;23612;50.894;10.700;2023-12-04T12:49:44;4.95;;;2.45;;
20527;SDS011;23612;50.894;10.700;2023-12-04T12:52:09;8.65;;;5.20;;
20527;SDS011;23612;50.894;10.700;2023-12-04T12:54:42;6.75;;;4.13;;
20527;SDS011;23612;50.894;10.700;2023-12-04T12:57:08;24.08;;;13.18;;
20527;SDS011;23612;50.894;10.700;2023-12-04T12:59:34;10.40;;;4.30;;
20527;SDS011;23612;50.894;10.700;2023-12-04T13:02:00;2.35;;;1.90;;
20527;SDS011;23612;50.894;10.700;2023-12-04T13:04:33;24.13;;;12.32;;
20527;SDS011;23612;50.894;10.700;2023-12-04T13:06:59;9.85;;;4.45;;
20527;SDS011;23612;50.894;10.700;2023-12-04T13:09:25;11.65;;;5.45;;
20527;SDS011;23612;50.894;10.700;2023-12-04T13:11:50;11.20;;;4.32;;
20527;SDS011;23612;50.894;10.700;2023-12-04T13:14:17;5.87;;;3.20;;
20527;SDS011;23612;50.894;10.700;2023-12-04T13:16:42;1.90;;;1.60;;
20527;SDS011;23612;50.894;10.700;2023-12-04T13:19:08;2.40;;;1.93;;
20527;SDS011;23612;50.894;10.700;2023-12-04T13:21:33;2.42;;;2.10;;
20527;SDS011;23612;50.894;10.700;2023-12-04T13:23:59;2.63;;;2.20;;
20527;SDS011;23612;50.894;10.700;2023-12-04T13:26:24;1.83;;;1.67;;
20527;SDS011;23612;50.894;10.700;2023-12-04T13:28:50;2.33;;;1.87;;
20527;SDS011;23612;50.894;10.700;2023-12-04T13:31:16;2.10;;;1.83;;
20527;SDS011;23612;50.894;10.700;2023-12-04T13:33:42;2.13;;;1.93;;
20527;SDS011;23612;50.894;10.700;2023-12-04T13:36:08;1.77;;;1.50;;
20527;SDS011;23612;50.894;10.700;2023-12-04T13:38:34;10.93;;;5.93;;
20527;SDS011;23612;50.894;10.700;2023-12-04T13:41:00;27.33;;;13.30;;
20527;SDS011;23612;50.894;10.700;2023-12-04T13:43:33;18.33;;;9.43;;
20527;SDS011;23612;50.894;10.700;2023-12-04T13:46:18;8.50;;;4.70;;
20527;SDS011;23612;50.894;10.700;2023-12-04T13:48:44;21.00;;;10.27;;
20527;SDS011;23612;50.894;10.700;2023-12-04T13:51:10;17.60;;;9.03;;
20527;SDS011;23612;50.894;10.700;2023-12-04T13:53:36;4.30;;;2.47;;
20527;SDS011;23612;50.894;10.700;2023-12-04T13:56:14;4.47;;;2.93;;
20527;SDS011;23612;50.894;10.700;2023-12-04T13:58:47;3.37;;;2.60;;
20527;SDS011;23612;50.894;10.700;2023-12-04T14:01:19;5.57;;;3.35;;
20527;SDS011;23612;50.894;10.700;2023-12-04T14:03:48;3.83;;;2.83;;
20527;SDS011;23612;50.894;10.700;2023-12-04T14:06:13;3.00;;;2.23;;
20527;SDS011;23612;50.894;10.700;2023-12-04T14:08:42;7.30;;;4.37;;
20527;SDS011;23612;50.894;10.700;2023-12-04T14:11:07;11.00;;;5.33;;
20527;SDS011;23612;50.894;10.700;2023-12-04T14:13:34;8.03;;;5.20;;
20527;SDS011;23612;50.894;10.700;2023-12-04T14:16:00;2.63;;;2.00;;
20527;SDS011;23612;50.894;10.700;2023-12-04T14:18:29;2.67;;;2.10;;
20527;SDS011;23612;50.894;10.700;2023-12-04T14:20:55;1.93;;;1.73;;
20527;SDS011;23612;50.894;10.700;2023-12-04T14:23:21;6.20;;;3.67;;